Time;durP1;ratioP1;P1;durP2;ratioP2;P2;SDS_P1;SDS_P2;PMS_P1;PMS_P2;Temp;Humidity;BMP_temperature;BMP_pressure;BME280_temperature;BME280_humidity;BME280_pressure;Samples;Min_cycle;Max_cycle;Signal;HPM_P1;HPM_P2
2021/09/06 00:00:15;;;;;;;14.77;7.25;;;18.50;99.90;;;;;;5073828;28;20036;-73
2021/09/06 00:02:43;;;;;;;15.10;7.68;;;18.40;99.90;;;;;;5072325;28;20032;-73
2021/09/06 00:05:13;;;;;;;12.40;7.43;;;18.40;99.90;;;;;;5072164;28;20036;-73
2021/09/06 00:07:43;;;;;;;10.85;7.22;;;18.40;99.90;;;;;;5073666;28;20032;-73
2021/09/06 00:10:33;;;;;;;12.60;7.43;;;18.40;99.90;;;;;;5072129;28;20033;-73
2021/09/06 00:13:03;;;;;;;12.45;7.25;;;18.40;99.90;;;;;;5073419;28;20102;-73
2021/09/06 00:15:30;;;;;;;9.43;7.00;;;18.40;99.90;;;;;;5072180;28;20531;-73
2021/09/06 00:17:56;;;;;;;14.45;7.78;;;18.30;99.90;;;;;;5072360;28;20045;-73
2021/09/06 00:20:23;;;;;;;11.38;7.07;;;18.20;99.90;;;;;;5072222;28;20029;-73
2021/09/06 00:22:49;;;;;;;12.55;7.43;;;18.30;99.90;;;;;;5072085;28;20394;-73
2021/09/06 00:25:15;;;;;;;11.82;7.75;;;18.30;99.90;;;;;;5071755;28;20473;-73
2021/09/06 00:27:41;;;;;;;12.48;7.68;;;18.30;99.90;;;;;;5071741;28;20029;-72
2021/09/06 00:30:08;;;;;;;12.73;7.18;;;18.20;99.90;;;;;;5072045;28;20031;-73
2021/09/06 00:32:33;;;;;;;12.13;8.38;;;18.20;99.90;;;;;;5072996;28;20047;-73
2021/09/06 00:34:59;;;;;;;12.30;8.00;;;18.20;99.90;;;;;;5073268;28;20381;-73
2021/09/06 00:37:25;;;;;;;11.30;7.20;;;18.20;99.90;;;;;;5072847;28;20242;-73
2021/09/06 00:39:50;;;;;;;11.88;7.40;;;18.20;99.90;;;;;;5073125;28;20036;-73
2021/09/06 00:42:16;;;;;;;11.95;7.75;;;18.20;99.90;;;;;;5072941;28;20039;-73
2021/09/06 00:44:42;;;;;;;13.90;7.78;;;18.20;99.90;;;;;;5072864;28;20024;-73
2021/09/06 00:47:08;;;;;;;14.80;8.27;;;18.10;99.90;;;;;;5071640;28;20032;-74
2021/09/06 00:49:34;;;;;;;14.23;7.57;;;18.10;99.90;;;;;;5072708;28;20036;-73
2021/09/06 00:52:00;;;;;;;14.73;7.95;;;17.90;99.90;;;;;;5071490;28;20032;-73
2021/09/06 00:54:26;;;;;;;13.43;7.97;;;17.80;99.90;;;;;;5071254;28;20025;-73
2021/09/06 00:56:53;;;;;;;12.52;8.18;;;17.80;99.90;;;;;;5072656;28;20032;-73
2021/09/06 00:59:19;;;;;;;11.43;7.95;;;17.80;99.90;;;;;;5072739;28;20515;-73
2021/09/06 01:01:45;;;;;;;13.10;8.15;;;17.80;99.90;;;;;;5072490;28;20052;-73
2021/09/06 01:04:11;;;;;;;12.57;7.78;;;17.80;99.90;;;;;;5072587;28;20040;-73
2021/09/06 01:06:37;;;;;;;14.32;8.43;;;17.80;99.90;;;;;;5072476;28;20104;-73
2021/09/06 01:09:02;;;;;;;11.60;7.57;;;17.80;99.90;;;;;;5054484;28;20033;-73
2021/09/06 01:11:29;;;;;;;13.48;7.93;;;17.80;99.90;;;;;;5071172;28;20127;-73
2021/09/06 01:13:54;;;;;;;12.57;8.10;;;17.90;99.90;;;;;;5071634;28;20135;-73
2021/09/06 01:16:23;;;;;;;14.98;7.50;;;17.90;99.90;;;;;;5070851;28;20132;-73
2021/09/06 01:18:49;;;;;;;12.55;7.88;;;17.90;99.90;;;;;;5071991;28;20355;-73
2021/09/06 01:21:15;;;;;;;14.25;8.50;;;17.90;99.90;;;;;;5071010;28;20469;-73
2021/09/06 01:23:42;;;;;;;13.75;7.75;;;17.90;99.90;;;;;;5071056;28;20036;-73
2021/09/06 01:26:08;;;;;;;13.15;7.90;;;18.00;99.90;;;;;;5072173;28;20036;-73
2021/09/06 01:28:34;;;;;;;15.48;8.57;;;18.00;99.90;;;;;;5072105;28;20032;-73
2021/09/06 01:31:01;;;;;;;14.63;8.05;;;18.00;99.90;;;;;;5070912;28;20485;-73
2021/09/06 01:33:27;;;;;;;12.85;8.13;;;17.90;99.90;;;;;;5071962;28;20036;-73
2021/09/06 01:35:53;;;;;;;14.55;8.38;;;17.90;99.90;;;;;;5070965;28;20025;-73
2021/09/06 01:38:19;;;;;;;14.23;8.27;;;17.90;99.90;;;;;;5072018;28;20026;-73
2021/09/06 01:40:44;;;;;;;16.20;8.20;;;17.90;99.90;;;;;;5071933;28;20036;-73
2021/09/06 01:43:10;;;;;;;12.43;8.27;;;17.80;99.90;;;;;;5072236;28;20067;-73
2021/09/06 01:45:37;;;;;;;13.15;8.45;;;17.90;99.90;;;;;;5071991;28;20077;-73
2021/09/06 01:48:03;;;;;;;15.25;8.82;;;17.90;99.90;;;;;;5072034;28;20382;-73
2021/09/06 01:50:29;;;;;;;11.40;7.88;;;17.80;99.90;;;;;;5072120;28;20029;-73
2021/09/06 01:52:55;;;;;;;12.43;8.32;;;17.80;99.90;;;;;;5072277;28;20040;-73
2021/09/06 01:55:21;;;;;;;14.40;7.93;;;17.90;99.90;;;;;;5070946;28;20513;-72
2021/09/06 01:57:46;;;;;;;11.65;7.97;;;17.90;99.90;;;;;;5071005;28;20029;-71
2021/09/06 02:00:12;;;;;;;13.70;8.15;;;17.80;99.90;;;;;;5070885;28;20033;-72
2021/09/06 02:02:38;;;;;;;14.10;7.97;;;17.80;99.90;;;;;;5071985;28;20067;-72
2021/09/06 02:05:05;;;;;;;13.52;8.32;;;17.70;99.90;;;;;;5071674;28;20064;-72
2021/09/06 02:07:31;;;;;;;13.68;8.32;;;17.60;99.90;;;;;;5071954;28;20512;-71
2021/09/06 02:09:57;;;;;;;15.43;8.80;;;17.50;99.90;;;;;;5070762;28;20031;-74
2021/09/06 02:12:23;;;;;;;15.05;8.25;;;17.40;99.90;;;;;;5071784;28;20047;-72
2021/09/06 02:14:49;;;;;;;14.40;8.48;;;17.40;99.90;;;;;;5070288;28;20489;-72
2021/09/06 02:17:14;;;;;;;15.80;8.38;;;17.30;99.90;;;;;;5054065;28;20028;-74
2021/09/06 02:19:40;;;;;;;13.85;9.00;;;17.30;99.90;;;;;;5071650;28;20070;-72
2021/09/06 02:22:06;;;;;;;12.68;8.63;;;17.00;99.90;;;;;;5071542;28;20028;-73
2021/09/06 02:24:32;;;;;;;13.43;9.05;;;17.00;99.90;;;;;;5072000;28;20118;-73
2021/09/06 02:26:58;;;;;;;13.57;8.52;;;16.90;99.90;;;;;;5071757;28;20039;-72
2021/09/06 02:29:24;;;;;;;14.50;9.40;;;16.90;99.90;;;;;;5070520;28;20196;-72
2021/09/06 02:31:49;;;;;;;18.10;8.88;;;16.80;99.90;;;;;;5073726;28;20032;-72
2021/09/06 02:34:15;;;;;;;14.60;9.27;;;16.70;99.90;;;;;;5075338;28;20061;-72
2021/09/06 02:36:41;;;;;;;13.60;9.52;;;16.70;99.90;;;;;;5074120;28;20358;-72
2021/09/06 02:39:07;;;;;;;16.85;9.45;;;16.60;99.90;;;;;;5075257;28;20040;-72
2021/09/06 02:41:32;;;;;;;15.00;9.60;;;16.80;99.90;;;;;;5073790;28;20028;-72
2021/09/06 02:43:58;;;;;;;14.32;9.05;;;16.80;99.90;;;;;;5057287;28;20028;-72
2021/09/06 02:46:24;;;;;;;16.38;9.13;;;16.90;99.90;;;;;;5073686;28;20052;-72
2021/09/06 02:48:50;;;;;;;14.18;9.10;;;16.90;99.90;;;;;;5075336;28;20062;-72
2021/09/06 02:51:15;;;;;;;14.57;9.35;;;16.90;99.90;;;;;;5074845;28;20032;-72
2021/09/06 02:53:41;;;;;;;15.65;9.80;;;16.90;99.90;;;;;;5074917;28;20109;-72
2021/09/06 02:56:07;;;;;;;16.42;9.27;;;16.90;99.90;;;;;;5075163;28;20028;-72
2021/09/06 02:58:32;;;;;;;14.35;9.30;;;16.90;99.90;;;;;;5074808;28;20037;-72
2021/09/06 03:00:58;;;;;;;15.57;10.02;;;16.80;99.90;;;;;;5057207;28;20174;-72
2021/09/06 03:03:24;;;;;;;13.00;8.77;;;16.80;99.90;;;;;;5073503;28;20117;-72
2021/09/06 03:05:50;;;;;;;16.20;9.05;;;16.80;99.90;;;;;;5073367;28;20036;-72
2021/09/06 03:08:17;;;;;;;15.50;9.45;;;16.90;99.90;;;;;;5073248;28;20029;-72
2021/09/06 03:10:43;;;;;;;14.52;9.98;;;16.70;99.90;;;;;;5074899;28;20358;-72
2021/09/06 03:13:08;;;;;;;13.65;9.13;;;16.50;99.90;;;;;;5073320;28;20127;-72
2021/09/06 03:15:34;;;;;;;14.40;9.25;;;16.40;99.90;;;;;;5074352;28;20114;-72
2021/09/06 03:18:00;;;;;;;15.15;10.15;;;16.30;99.90;;;;;;5073662;28;20077;-72
2021/09/06 03:20:26;;;;;;;15.45;8.93;;;16.30;99.90;;;;;;5074549;28;20358;-72
2021/09/06 03:22:52;;;;;;;14.55;9.52;;;16.40;99.90;;;;;;5074732;28;20043;-72
2021/09/06 03:25:17;;;;;;;15.25;9.68;;;16.50;99.90;;;;;;5074113;28;20033;-72
2021/09/06 03:27:43;;;;;;;16.98;9.90;;;16.40;99.90;;;;;;5073139;28;20032;-72
2021/09/06 03:30:09;;;;;;;14.55;9.25;;;16.20;99.90;;;;;;5073253;28;20119;-72
2021/09/06 03:32:35;;;;;;;15.95;9.57;;;16.40;99.90;;;;;;5072930;28;20048;-72
2021/09/06 03:35:01;;;;;;;17.30;10.40;;;16.50;99.90;;;;;;5074502;28;20029;-72
2021/09/06 03:37:27;;;;;;;16.05;10.55;;;16.50;99.90;;;;;;5073910;28;20465;-72
2021/09/06 03:39:52;;;;;;;14.48;9.77;;;16.50;99.90;;;;;;5074093;28;20025;-72
2021/09/06 03:42:18;;;;;;;15.23;9.80;;;16.50;99.90;;;;;;5073501;28;20115;-72
2021/09/06 03:44:44;;;;;;;16.17;9.85;;;16.40;99.90;;;;;;5074078;28;20082;-72
2021/09/06 03:47:10;;;;;;;15.98;10.20;;;16.40;99.90;;;;;;5048050;28;20095;-71
2021/09/06 03:49:36;;;;;;;15.00;10.02;;;16.40;99.90;;;;;;5061746;28;20126;-70
2021/09/06 03:52:02;;;;;;;15.77;9.23;;;16.30;99.90;;;;;;5053831;28;20619;-70
2021/09/06 03:54:27;;;;;;;13.80;8.73;;;16.10;99.90;;;;;;5056308;28;20056;-70
2021/09/06 03:56:53;;;;;;;13.13;8.65;;;16.00;99.90;;;;;;5052353;28;20029;-69
2021/09/06 03:59:19;;;;;;;13.20;9.25;;;15.90;99.90;;;;;;5053470;28;20029;-69
2021/09/06 04:01:46;;;;;;;15.73;9.32;;;16.00;99.90;;;;;;5053853;28;20033;-70
2021/09/06 04:04:12;;;;;;;16.23;9.77;;;15.90;99.90;;;;;;5052348;28;20033;-69
2021/09/06 04:06:38;;;;;;;16.40;10.52;;;15.80;99.90;;;;;;5052387;28;20025;-69
2021/09/06 04:09:04;;;;;;;18.13;10.32;;;16.10;99.90;;;;;;5052369;28;20654;-68
2021/09/06 04:11:29;;;;;;;17.00;9.05;;;16.10;99.90;;;;;;5053395;28;20025;-69
2021/09/06 04:13:55;;;;;;;16.92;10.07;;;16.10;99.90;;;;;;5052194;28;20371;-69
2021/09/06 04:16:21;;;;;;;18.65;9.82;;;16.10;99.90;;;;;;5055043;28;20052;-69
2021/09/06 04:18:46;;;;;;;17.00;9.65;;;16.00;99.90;;;;;;5073619;28;20504;-68
2021/09/06 04:21:12;;;;;;;14.20;8.73;;;15.70;99.90;;;;;;5073274;28;20377;-68
2021/09/06 04:23:39;;;;;;;14.00;9.65;;;15.90;99.90;;;;;;5073430;28;20037;-68
2021/09/06 04:26:05;;;;;;;41.38;26.20;;;15.70;99.90;;;;;;5073316;28;20025;-67
2021/09/06 04:28:31;;;;;;;28.10;18.92;;;15.70;99.90;;;;;;5072930;28;20035;-66
2021/09/06 04:30:57;;;;;;;25.05;16.20;;;15.70;99.90;;;;;;5072634;28;20028;-67
2021/09/06 04:33:24;;;;;;;32.67;20.55;;;15.50;99.90;;;;;;5071192;28;20036;-67
2021/09/06 04:35:52;;;;;;;25.08;15.43;;;15.40;99.90;;;;;;5063187;28;20486;-67
2021/09/06 04:38:18;;;;;;;19.02;10.75;;;15.50;99.90;;;;;;5066409;28;20028;-67
2021/09/06 04:40:44;;;;;;;38.35;24.30;;;15.70;99.90;;;;;;5071169;28;20032;-67
2021/09/06 04:43:10;;;;;;;21.48;13.00;;;15.70;99.90;;;;;;5071280;28;20072;-66
2021/09/06 04:45:36;;;;;;;16.73;9.95;;;15.90;99.90;;;;;;5070545;28;20032;-66
2021/09/06 04:48:02;;;;;;;16.13;10.40;;;15.90;99.90;;;;;;5055108;28;20037;-66
2021/09/06 04:50:28;;;;;;;19.90;11.93;;;15.90;99.90;;;;;;5051440;28;20040;-67
2021/09/06 04:52:55;;;;;;;21.08;11.35;;;15.90;99.90;;;;;;5052696;28;20037;-67
2021/09/06 04:55:21;;;;;;;16.23;10.27;;;16.00;99.90;;;;;;5051817;28;20025;-68
2021/09/06 04:57:50;;;;;;;18.75;11.40;;;16.00;99.90;;;;;;5051545;28;20033;-67
2021/09/06 05:00:16;;;;;;;16.65;10.95;;;16.10;99.90;;;;;;5051312;28;20037;-65
2021/09/06 05:02:42;;;;;;;16.25;10.70;;;16.20;99.90;;;;;;5051156;28;20112;-66
2021/09/06 05:05:09;;;;;;;17.40;10.70;;;16.30;99.90;;;;;;5052777;28;20025;-66
2021/09/06 05:07:35;;;;;;;19.33;10.95;;;16.30;99.90;;;;;;5052368;28;20033;-66
2021/09/06 05:10:00;;;;;;;16.55;10.80;;;16.40;99.90;;;;;;5052412;28;20466;-66
2021/09/06 05:12:26;;;;;;;19.02;11.15;;;16.30;99.90;;;;;;5052518;28;20073;-66
2021/09/06 05:14:52;;;;;;;16.63;10.27;;;16.30;99.90;;;;;;5043464;28;20049;-66
2021/09/06 05:17:18;;;;;;;18.33;10.95;;;16.30;99.90;;;;;;5052138;28;20040;-66
2021/09/06 05:19:43;;;;;;;18.70;10.73;;;16.40;99.90;;;;;;5051061;28;20098;-66
2021/09/06 05:22:09;;;;;;;18.05;10.88;;;16.30;99.90;;;;;;5052483;28;20181;-66
2021/09/06 05:24:37;;;;;;;18.80;11.98;;;16.20;99.90;;;;;;5051946;28;20040;-66
2021/09/06 05:27:03;;;;;;;18.35;11.32;;;16.20;99.90;;;;;;5051029;28;20025;-66
2021/09/06 05:29:29;;;;;;;21.73;11.23;;;16.00;99.90;;;;;;5052236;28;20060;-66
2021/09/06 05:31:55;;;;;;;18.30;10.73;;;15.90;99.90;;;;;;5051918;28;20477;-66
2021/09/06 05:34:20;;;;;;;17.52;11.27;;;15.80;99.90;;;;;;5050885;28;20044;-66
2021/09/06 05:36:46;;;;;;;17.00;10.65;;;16.00;99.90;;;;;;5050645;28;20083;-66
2021/09/06 05:39:12;;;;;;;18.08;10.82;;;16.10;99.90;;;;;;5050971;28;20029;-66
2021/09/06 05:41:37;;;;;;;16.98;11.63;;;16.20;99.90;;;;;;5052276;28;20515;-66
2021/09/06 05:44:05;;;;;;;20.30;12.25;;;16.30;99.90;;;;;;5052168;28;20033;-65
2021/09/06 05:46:31;;;;;;;18.50;10.75;;;16.30;99.90;;;;;;5051678;28;20390;-66
2021/09/06 05:48:57;;;;;;;22.15;11.25;;;16.40;99.90;;;;;;5044247;28;20033;-66
2021/09/06 05:51:25;;;;;;;15.75;11.27;;;16.30;99.90;;;;;;5052512;28;20500;-59
2021/09/06 05:53:51;;;;;;;15.88;9.75;;;16.30;99.90;;;;;;5051925;28;20040;-54
2021/09/06 05:56:20;;;;;;;19.75;11.40;;;16.30;99.90;;;;;;5052191;28;20029;-56
2021/09/06 05:58:49;;;;;;;18.30;10.02;;;16.10;99.90;;;;;;5058195;28;20083;-57
2021/09/06 06:01:14;;;;;;;19.05;11.02;;;16.00;99.90;;;;;;5064813;28;20124;-54
2021/09/06 06:03:40;;;;;;;22.55;12.07;;;16.10;99.90;;;;;;5070827;28;20112;-57
2021/09/06 06:06:06;;;;;;;20.98;12.27;;;16.30;99.90;;;;;;5074313;28;20059;-52
2021/09/06 06:08:32;;;;;;;23.08;11.57;;;16.50;99.90;;;;;;5075864;28;20464;-55
2021/09/06 06:10:58;;;;;;;28.88;13.07;;;16.50;99.90;;;;;;5075838;28;20028;-54
2021/09/06 06:13:24;;;;;;;23.23;12.45;;;16.70;99.90;;;;;;5075764;28;20032;-54
2021/09/06 06:15:49;;;;;;;28.90;12.85;;;16.80;99.90;;;;;;5075316;28;20044;-53
2021/09/06 06:18:15;;;;;;;18.90;11.60;;;16.80;99.90;;;;;;5075787;28;20135;-52
2021/09/06 06:20:41;;;;;;;18.35;11.15;;;16.90;99.90;;;;;;5075758;28;20024;-55
2021/09/06 06:23:07;;;;;;;20.38;11.32;;;17.00;99.90;;;;;;5075399;28;20040;-57
2021/09/06 06:25:32;;;;;;;21.02;12.13;;;17.10;99.90;;;;;;5075549;28;20024;-54
2021/09/06 06:27:58;;;;;;;17.15;10.75;;;17.20;99.90;;;;;;5075337;28;20047;-56
2021/09/06 06:30:26;;;;;;;18.52;10.95;;;17.30;99.90;;;;;;5075260;28;20029;-54
2021/09/06 06:32:52;;;;;;;17.25;10.90;;;17.20;99.90;;;;;;5073838;28;20043;-56
2021/09/06 06:35:18;;;;;;;16.08;10.50;;;17.30;99.90;;;;;;5075660;28;20029;-54
2021/09/06 06:37:43;;;;;;;19.55;11.65;;;17.40;99.90;;;;;;5074967;28;20097;-57
2021/09/06 06:40:10;;;;;;;16.38;10.90;;;17.50;99.90;;;;;;5075505;28;20029;-56
2021/09/06 06:42:36;;;;;;;17.65;10.52;;;17.50;99.90;;;;;;5075238;28;20025;-57
2021/09/06 06:45:02;;;;;;;17.55;10.80;;;17.60;99.90;;;;;;5075014;28;20032;-54
2021/09/06 06:47:28;;;;;;;17.65;11.15;;;17.60;99.90;;;;;;5075111;28;20123;-53
2021/09/06 06:49:54;;;;;;;20.13;10.27;;;17.60;99.90;;;;;;5075144;28;20112;-55
2021/09/06 06:52:20;;;;;;;20.85;11.93;;;17.70;99.90;;;;;;5070385;28;20105;-56
2021/09/06 06:54:48;;;;;;;19.00;10.45;;;17.70;99.90;;;;;;5054719;28;20079;-56
2021/09/06 06:57:14;;;;;;;18.25;11.68;;;17.70;99.90;;;;;;5054710;28;20497;-58
2021/09/06 06:59:43;;;;;;;17.80;10.82;;;17.70;99.90;;;;;;5054947;28;20039;-54
2021/09/06 07:02:09;;;;;;;19.60;11.32;;;17.90;99.90;;;;;;5054904;28;20457;-56
2021/09/06 07:04:34;;;;;;;17.20;11.10;;;17.90;99.90;;;;;;5037128;28;20108;-56
2021/09/06 07:07:00;;;;;;;17.98;10.88;;;17.90;99.90;;;;;;5054865;28;20370;-57
2021/09/06 07:09:26;;;;;;;15.75;9.60;;;18.10;99.90;;;;;;5054843;28;20041;-55
2021/09/06 07:11:51;;;;;;;15.63;11.05;;;18.20;99.90;;;;;;5054801;28;20029;-54
2021/09/06 07:14:17;;;;;;;19.20;11.23;;;18.00;99.90;;;;;;5054451;28;20068;-57
2021/09/06 07:16:43;;;;;;;20.05;10.80;;;18.20;99.90;;;;;;5053646;28;20033;-56
2021/09/06 07:19:08;;;;;;;20.42;10.65;;;18.20;99.90;;;;;;5054605;28;20033;-57
2021/09/06 07:21:35;;;;;;;19.63;10.88;;;18.30;99.90;;;;;;5054515;28;20481;-56
2021/09/06 07:24:01;;;;;;;19.70;10.90;;;18.50;99.90;;;;;;5054481;28;20454;-55
2021/09/06 07:26:27;;;;;;;18.45;10.88;;;18.50;99.90;;;;;;5054155;28;20032;-50
2021/09/06 07:28:53;;;;;;;18.58;10.88;;;18.30;99.90;;;;;;5054366;28;20071;-56
2021/09/06 07:31:19;;;;;;;17.35;10.43;;;18.20;99.90;;;;;;5054249;28;20458;-56
2021/09/06 07:33:45;;;;;;;22.48;11.50;;;18.40;99.90;;;;;;5054203;28;20043;-56
2021/09/06 07:36:10;;;;;;;19.15;10.80;;;18.30;99.90;;;;;;5053283;28;20029;-57
2021/09/06 07:38:36;;;;;;;19.85;11.48;;;18.40;99.90;;;;;;5054237;28;20068;-58
2021/09/06 07:41:02;;;;;;;20.27;10.13;;;18.60;99.90;;;;;;5054338;28;20025;-54
2021/09/06 07:43:28;;;;;;;19.40;10.65;;;18.50;99.90;;;;;;5054235;28;20115;-58
2021/09/06 07:45:54;;;;;;;18.38;10.43;;;18.80;99.90;;;;;;5054036;28;20040;-59
2021/09/06 07:48:19;;;;;;;17.05;10.57;;;18.90;99.90;;;;;;5053996;28;20052;-57
2021/09/06 07:50:46;;;;;;;19.13;11.68;;;19.00;99.90;;;;;;5053923;28;20033;-56
2021/09/06 07:53:12;;;;;;;20.65;10.57;;;19.20;99.90;;;;;;5053892;28;20044;-59
2021/09/06 07:55:38;;;;;;;17.92;11.10;;;19.20;99.90;;;;;;5065380;28;20032;-59
2021/09/06 07:58:03;;;;;;;26.27;13.05;;;19.50;99.90;;;;;;5061742;28;20029;-58
2021/09/06 08:00:29;;;;;;;25.33;13.13;;;19.50;99.90;;;;;;5053545;28;20037;-58
2021/09/06 08:02:55;;;;;;;19.63;12.07;;;19.70;99.90;;;;;;5053641;28;20033;-59
2021/09/06 08:05:28;;;;;;;20.65;11.10;;;19.70;99.90;;;;;;5058135;28;20573;-56
2021/09/06 08:07:55;;;;;;;20.27;12.35;;;19.90;99.90;;;;;;5058839;28;20045;-56
2021/09/06 08:10:21;;;;;;;18.48;12.88;;;20.00;99.90;;;;;;5053679;28;20033;-58
2021/09/06 08:12:47;;;;;;;20.55;12.20;;;20.20;99.90;;;;;;5053479;28;20040;-59
2021/09/06 08:15:13;;;;;;;22.40;13.68;;;20.40;99.90;;;;;;5053199;28;20041;-56
2021/09/06 08:17:39;;;;;;;21.77;13.15;;;20.10;99.90;;;;;;5053424;28;20036;-59
2021/09/06 08:20:12;;;;;;;21.55;13.10;;;20.10;99.90;;;;;;5053430;28;20128;-57
2021/09/06 08:22:39;;;;;;;21.42;13.98;;;20.30;99.90;;;;;;5053442;28;20029;-58
2021/09/06 08:25:08;;;;;;;19.83;13.13;;;20.40;99.90;;;;;;5053231;28;20091;-59
2021/09/06 08:27:35;;;;;;;20.40;13.18;;;20.60;99.90;;;;;;5053196;28;20029;-58
2021/09/06 08:30:01;;;;;;;24.05;14.07;;;20.70;99.90;;;;;;5052998;28;20043;-58
2021/09/06 08:32:26;;;;;;;22.02;14.55;;;20.80;99.90;;;;;;5053222;28;20108;-59
2021/09/06 08:34:52;;;;;;;24.50;13.77;;;20.70;99.90;;;;;;5052591;28;20094;-57
2021/09/06 08:37:20;;;;;;;29.55;14.90;;;20.80;99.90;;;;;;5053228;28;20366;-58
2021/09/06 08:39:46;;;;;;;23.23;14.38;;;20.90;99.90;;;;;;5052886;28;20048;-58
2021/09/06 08:42:14;;;;;;;26.65;15.20;;;21.00;99.90;;;;;;5051887;28;20516;-59
2021/09/06 08:44:42;;;;;;;21.27;13.60;;;21.30;99.90;;;;;;5053015;28;20029;-59
2021/09/06 08:47:08;;;;;;;23.90;13.60;;;21.50;99.90;;;;;;5052853;28;20033;-59
2021/09/06 08:49:34;;;;;;;21.70;13.88;;;21.70;99.90;;;;;;5052562;28;20111;-59
2021/09/06 08:52:00;;;;;;;30.77;13.77;;;21.80;99.90;;;;;;5052988;28;20123;-59
2021/09/06 08:54:26;;;;;;;30.00;15.13;;;21.80;99.90;;;;;;5052630;28;20428;-59
2021/09/06 08:56:51;;;;;;;22.83;15.07;;;21.70;99.90;;;;;;5052440;28;20021;-59
2021/09/06 08:59:19;;;;;;;23.20;14.00;;;21.70;99.90;;;;;;5052867;28;20116;-60
2021/09/06 09:01:48;;;;;;;23.23;13.65;;;21.80;99.90;;;;;;5052477;28;20094;-59
2021/09/06 09:04:17;;;;;;;32.88;14.30;;;22.00;99.90;;;;;;5052602;28;20108;-59
2021/09/06 09:06:46;;;;;;;19.80;12.73;;;22.20;99.90;;;;;;5052534;28;20082;-60
2021/09/06 09:09:11;;;;;;;22.27;14.63;;;22.40;99.90;;;;;;5052621;28;20473;-58
2021/09/06 09:11:37;;;;;;;25.35;13.60;;;22.60;99.90;;;;;;5052025;28;20036;-58
2021/09/06 09:14:13;;;;;;;25.98;13.23;;;22.70;99.90;;;;;;5052061;28;20029;-58
2021/09/06 09:16:38;;;;;;;21.23;13.15;;;22.90;99.90;;;;;;5052270;28;20033;-60
2021/09/06 09:19:07;;;;;;;24.33;12.65;;;23.10;99.90;;;;;;5052341;28;20466;-59
2021/09/06 09:21:33;;;;;;;20.45;9.95;;;23.20;99.90;;;;;;5051940;28;20389;-58
2021/09/06 09:24:01;;;;;;;17.45;11.60;;;23.40;99.90;;;;;;5051080;28;20040;-59
2021/09/06 09:26:28;;;;;;;16.63;9.27;;;23.20;99.90;;;;;;5051973;28;20485;-59
2021/09/06 09:28:55;;;;;;;18.02;10.77;;;23.50;99.90;;;;;;5051051;28;20044;-58
2021/09/06 09:31:22;;;;;;;20.58;11.10;;;23.70;99.90;;;;;;5051790;28;20035;-58
2021/09/06 09:33:54;;;;;;;15.38;10.88;;;23.60;99.90;;;;;;5052177;28;20037;-59
2021/09/06 09:36:47;;;;;;;18.00;10.55;;;23.60;99.90;;;;;;5052491;28;20017;-57
2021/09/06 09:39:19;;;;;;;16.60;10.23;;;23.80;99.90;;;;;;5070225;28;20504;-58
2021/09/06 09:41:49;;;;;;;19.25;10.43;;;23.90;99.90;;;;;;5071102;28;20029;-57
2021/09/06 09:44:25;;;;;;;19.15;9.00;;;24.10;99.80;;;;;;5072557;28;20028;-57
2021/09/06 09:46:55;;;;;;;17.60;10.15;;;24.30;98.90;;;;;;5071976;28;20059;-58
2021/09/06 09:49:21;;;;;;;12.95;8.48;;;24.40;98.50;;;;;;5072253;28;20116;-57
2021/09/06 09:51:47;;;;;;;17.58;9.40;;;24.50;98.40;;;;;;5070676;28;20037;-58
2021/09/06 09:54:13;;;;;;;21.60;10.52;;;24.70;98.00;;;;;;5072166;28;20024;-58
2021/09/06 09:56:43;;;;;;;15.40;8.50;;;25.00;97.70;;;;;;5071840;28;20045;-59
2021/09/06 09:59:09;;;;;;;21.88;9.95;;;25.20;97.20;;;;;;5072140;28;20036;-58
2021/09/06 10:01:44;;;;;;;13.23;8.40;;;25.40;96.90;;;;;;5068980;28;20161;-57
2021/09/06 10:04:13;;;;;;;14.82;8.35;;;25.50;96.70;;;;;;5070895;28;20094;-59
2021/09/06 10:06:42;;;;;;;14.07;8.02;;;25.50;96.00;;;;;;5071171;28;20041;-59
2021/09/06 10:09:12;;;;;;;9.93;6.50;;;25.70;94.70;;;;;;5070466;28;20097;-58
2021/09/06 10:11:41;;;;;;;10.43;6.55;;;25.50;94.40;;;;;;5070650;28;20035;-59
2021/09/06 10:14:21;;;;;;;10.73;5.57;;;25.70;94.60;;;;;;5071489;28;20154;-58
2021/09/06 10:17:00;;;;;;;8.15;4.63;;;25.90;92.40;;;;;;5071539;28;20120;-58
2021/09/06 10:19:43;;;;;;;14.18;5.85;;;26.10;90.80;;;;;;5052665;28;20033;-61
2021/09/06 10:22:28;;;;;;;9.68;5.88;;;26.00;90.60;;;;;;5051620;28;20033;-57
2021/09/06 10:25:01;;;;;;;11.70;5.90;;;25.80;91.50;;;;;;5050474;28;20029;-58
2021/09/06 10:27:28;;;;;;;9.10;5.43;;;26.00;91.30;;;;;;5050409;28;20029;-58
2021/09/06 10:30:11;;;;;;;8.98;5.13;;;26.20;90.90;;;;;;5001730;28;20041;-58
2021/09/06 10:32:49;;;;;;;8.48;5.78;;;26.40;90.90;;;;;;5051559;28;20039;-58
2021/09/06 10:35:20;;;;;;;8.77;5.07;;;26.50;90.50;;;;;;5050459;28;20569;-59
2021/09/06 10:38:00;;;;;;;8.48;5.18;;;26.80;89.90;;;;;;5051484;28;20040;-59
2021/09/06 10:40:29;;;;;;;12.85;5.70;;;26.80;89.50;;;;;;5051449;28;20066;-59
2021/09/06 10:42:55;;;;;;;9.68;5.68;;;27.00;89.60;;;;;;5050919;28;20401;-58
2021/09/06 10:45:22;;;;;;;13.23;5.45;;;26.30;88.90;;;;;;5051756;28;20028;-57
2021/09/06 10:48:01;;;;;;;9.25;5.30;;;26.50;89.90;;;;;;5051192;28;20127;-57
2021/09/06 10:50:28;;;;;;;10.30;5.60;;;26.70;90.20;;;;;;5051606;28;20060;-58
2021/09/06 10:52:54;;;;;;;10.25;5.70;;;26.80;89.90;;;;;;5052859;28;20116;-71
2021/09/06 10:55:21;;;;;;;7.43;4.93;;;27.00;89.60;;;;;;5055370;28;20071;-73
2021/09/06 10:57:47;;;;;;;13.57;5.10;;;26.90;89.60;;;;;;5054618;28;20095;-65
2021/09/06 11:00:22;;;;;;;15.98;5.65;;;27.20;87.40;;;;;;5053565;28;20044;-70
2021/09/06 11:02:52;;;;;;;10.10;5.32;;;27.60;86.80;;;;;;5053400;28;20068;-70
2021/09/06 11:05:23;;;;;;;8.90;5.40;;;27.70;86.60;;;;;;5054980;28;20040;-69
2021/09/06 11:07:50;;;;;;;;;;;27.60;84.90;;;;;;5053596;28;20037;-70
2021/09/06 11:10:21;;;;;;;7.90;4.68;;;27.60;87.20;;;;;;5053431;28;20015;-70
2021/09/06 11:12:59;;;;;;;9.10;4.82;;;27.40;83.90;;;;;;5054414;28;20036;-70
2021/09/06 11:15:29;;;;;;;11.70;5.03;;;27.20;83.60;;;;;;5071739;28;20044;-69
2021/09/06 11:18:07;;;;;;;7.80;4.47;;;27.30;83.90;;;;;;5074782;28;20402;-69
2021/09/06 11:20:35;;;;;;;5.95;4.13;;;27.60;81.20;;;;;;5073261;28;20025;-69
2021/09/06 11:23:09;;;;;;;8.45;4.63;;;27.90;81.10;;;;;;5074408;28;20047;-70
2021/09/06 11:25:38;;;;;;;9.70;5.40;;;28.00;80.40;;;;;;5074277;28;20036;-70
2021/09/06 11:28:15;;;;;;;7.93;4.80;;;28.20;80.60;;;;;;5074079;28;20032;-70
2021/09/06 11:30:45;;;;;;;11.27;5.22;;;28.60;82.00;;;;;;5074173;28;20055;-70
2021/09/06 11:33:15;;;;;;;10.43;4.57;;;28.60;80.00;;;;;;5074250;28;20044;-70
2021/09/06 11:35:47;;;;;;;6.13;4.20;;;29.00;78.60;;;;;;5072813;28;20072;-70
2021/09/06 11:38:14;;;;;;;8.00;4.95;;;28.70;77.70;;;;;;5070493;28;20036;-70
2021/09/06 11:40:49;;;;;;;8.77;4.82;;;28.70;76.90;;;;;;5056697;28;20040;-70
2021/09/06 11:43:15;;;;;;;11.38;5.18;;;28.80;77.50;;;;;;5053004;28;20037;-70
2021/09/06 11:45:41;;;;;;;7.38;4.65;;;29.30;76.00;;;;;;5036178;28;20504;-70
2021/09/06 11:48:09;;;;;;;8.55;4.53;;;29.40;75.50;;;;;;5052720;28;20036;-70
2021/09/06 11:50:39;;;;;;;8.98;4.30;;;29.90;74.00;;;;;;5052538;28;20029;-70
2021/09/06 11:53:10;;;;;;;8.45;4.95;;;29.50;73.80;;;;;;5052654;28;20039;-70
2021/09/06 11:55:36;;;;;;;9.30;4.60;;;29.40;75.50;;;;;;5052516;28;20037;-70
2021/09/06 11:58:11;;;;;;;7.38;4.28;;;29.50;75.30;;;;;;5061043;28;20032;-70
2021/09/06 12:00:40;;;;;;;8.40;4.45;;;29.70;74.20;;;;;;5073935;28;20035;-70
2021/09/06 12:03:10;;;;;;;11.07;4.60;;;30.20;74.40;;;;;;5071574;28;20044;-70
2021/09/06 12:05:50;;;;;;;6.72;4.13;;;30.80;72.90;;;;;;5072281;28;20066;-70
2021/09/06 12:08:17;;;;;;;6.50;3.80;;;31.20;71.10;;;;;;5072239;28;20506;-70
2021/09/06 12:10:46;;;;;;;7.45;4.55;;;31.10;71.00;;;;;;5072218;28;20044;-70
2021/09/06 12:13:21;;;;;;;6.53;4.28;;;30.10;71.40;;;;;;5071915;28;20032;-70
2021/09/06 12:16:00;;;;;;;5.70;4.07;;;30.00;71.90;;;;;;5071833;28;20037;-69
2021/09/06 12:18:39;;;;;;;8.93;4.03;;;29.60;72.80;;;;;;5071913;28;20032;-70
2021/09/06 12:21:18;;;;;;;5.25;3.70;;;29.60;72.50;;;;;;5073366;28;20068;-70
2021/09/06 12:23:50;;;;;;;8.32;4.45;;;29.70;71.50;;;;;;5073272;28;20028;-70
2021/09/06 12:26:18;;;;;;;6.90;4.00;;;29.80;71.30;;;;;;5071903;28;20036;-70
2021/09/06 12:28:57;;;;;;;9.05;4.07;;;30.70;71.40;;;;;;5071685;28;20036;-70
2021/09/06 12:31:24;;;;;;;6.95;3.97;;;31.20;70.00;;;;;;5072927;28;20031;-70
2021/09/06 12:33:51;;;;;;;10.00;4.35;;;31.10;67.90;;;;;;5055126;28;20503;-71